createdAt,value
2024-02-11T00:00:40.623Z,15.03
2024-02-11T00:03:08.489Z,14.73
2024-02-11T00:05:38.123Z,14.97
2024-02-11T00:08:09.642Z,16.33
2024-02-11T00:10:37.039Z,14.93
2024-02-11T00:13:03.925Z,14.87
2024-02-11T00:15:30.600Z,14.63
2024-02-11T00:17:58.469Z,14.27
2024-02-11T00:20:27.850Z,15.30
2024-02-11T00:22:55.059Z,14.57
2024-02-11T00:25:21.724Z,14.43
2024-02-11T00:27:51.620Z,14.73
2024-02-11T00:30:18.533Z,16.43
2024-02-11T00:32:46.189Z,13.87
2024-02-11T00:35:16.793Z,15.10
2024-02-11T00:37:43.783Z,15.40
2024-02-11T00:40:11.875Z,15.67
2024-02-11T00:42:38.534Z,14.63
2024-02-11T00:45:05.680Z,15.60
2024-02-11T00:47:32.511Z,15.27
2024-02-11T00:49:59.423Z,14.80
2024-02-11T00:52:26.081Z,15.03
2024-02-11T00:54:52.836Z,15.03
2024-02-11T00:57:21.094Z,14.47
2024-02-11T00:59:47.828Z,13.93
2024-02-11T01:02:14.586Z,15.97
2024-02-11T01:04:41.452Z,14.70
2024-02-11T01:07:08.595Z,15.37
2024-02-11T01:09:35.866Z,15.40
2024-02-11T01:12:02.817Z,15.30
2024-02-11T01:14:31.377Z,15.93
2024-02-11T01:16:58.683Z,14.97
2024-02-11T01:19:25.612Z,15.43
2024-02-11T01:21:54.674Z,15.37
2024-02-11T01:24:21.659Z,15.83
2024-02-11T01:26:49.952Z,14.83
2024-02-11T01:29:17.399Z,14.50
2024-02-11T01:31:44.298Z,15.27
2024-02-11T01:34:11.290Z,15.13
2024-02-11T01:36:38.004Z,14.70
2024-02-11T01:39:04.809Z,14.23
2024-02-11T01:41:31.451Z,14.37
2024-02-11T01:43:59.486Z,15.03
2024-02-11T01:46:26.619Z,14.47
2024-02-11T01:48:53.554Z,13.53
2024-02-11T01:51:20.296Z,14.10
2024-02-11T01:53:50.373Z,14.17
2024-02-11T01:56:21.850Z,13.63
2024-02-11T01:58:50.321Z,13.37
2024-02-11T02:01:19.123Z,13.70
2024-02-11T02:03:48.125Z,14.07
2024-02-11T02:06:17.255Z,13.70
2024-02-11T02:08:44.281Z,14.87
2024-02-11T02:11:11.436Z,14.20
2024-02-11T02:13:39.265Z,14.87
2024-02-11T02:16:09.476Z,13.50
2024-02-11T02:18:36.853Z,14.23
2024-02-11T02:21:06.031Z,14.33
2024-02-11T02:23:32.972Z,14.63
2024-02-11T02:26:09.839Z,14.47
2024-02-11T02:28:37.496Z,14.63
2024-02-11T02:31:06.700Z,13.57
2024-02-11T02:33:37.768Z,12.47
2024-02-11T02:36:05.499Z,12.67
2024-02-11T02:38:33.978Z,13.07
2024-02-11T02:41:00.924Z,12.30
2024-02-11T02:43:27.607Z,12.13
2024-02-11T02:45:54.242Z,10.60
2024-02-11T02:48:20.982Z,10.83
2024-02-11T02:50:47.707Z,11.30
2024-02-11T02:53:14.542Z,10.03
2024-02-11T02:55:41.417Z,10.83
2024-02-11T02:58:15.563Z,10.67
2024-02-11T03:00:42.819Z,10.60
2024-02-11T03:03:09.736Z,10.83
2024-02-11T03:05:41.917Z,10.70
2024-02-11T03:08:09.057Z,10.47
2024-02-11T03:10:35.936Z,10.60
2024-02-11T03:13:02.613Z,11.00
2024-02-11T03:15:29.316Z,10.07
2024-02-11T03:17:56.040Z,10.33
2024-02-11T03:20:22.777Z,11.33
2024-02-11T03:22:49.788Z,9.67
2024-02-11T03:25:16.745Z,10.77
2024-02-11T03:27:43.468Z,11.40
2024-02-11T03:30:11.970Z,11.30
2024-02-11T03:32:38.804Z,10.73
2024-02-11T03:35:06.722Z,11.47
2024-02-11T03:37:35.311Z,10.60
2024-02-11T03:40:10.250Z,10.67
2024-02-11T03:42:37.698Z,11.27
2024-02-11T03:45:16.633Z,10.73
2024-02-11T03:47:43.663Z,11.33
2024-02-11T03:50:15.211Z,10.90
2024-02-11T03:52:42.875Z,7.67
2024-02-11T03:55:13.193Z,11.37
2024-02-11T03:57:40.315Z,11.13
2024-02-11T04:00:26.712Z,11.30
2024-02-11T04:02:56.222Z,11.43
2024-02-11T04:05:25.968Z,11.33
2024-02-11T04:07:54.779Z,12.13
2024-02-11T04:10:24.567Z,12.03
2024-02-11T04:12:55.244Z,12.40
2024-02-11T04:15:26.299Z,11.80
2024-02-11T04:17:55.267Z,11.93
2024-02-11T04:20:26.262Z,11.00
2024-02-11T04:23:02.489Z,11.40
2024-02-11T04:25:35.188Z,11.33
2024-02-11T04:28:12.162Z,11.87
2024-02-11T04:30:40.337Z,10.67
2024-02-11T04:33:08.705Z,11.90
2024-02-11T04:35:36.589Z,11.70
2024-02-11T04:38:13.929Z,11.67
2024-02-11T04:40:41.892Z,10.70
2024-02-11T04:43:08.828Z,11.20
2024-02-11T04:45:38.180Z,11.97
2024-02-11T04:48:06.073Z,10.67
2024-02-11T04:50:35.499Z,11.77
2024-02-11T04:53:05.564Z,12.07
2024-02-11T04:55:41.845Z,11.60
2024-02-11T04:58:15.863Z,11.97
2024-02-11T05:00:43.315Z,11.57
2024-02-11T05:03:12.110Z,12.77
2024-02-11T05:05:55.345Z,13.57
2024-02-11T05:08:24.536Z,12.77
2024-02-11T05:10:54.483Z,12.50
2024-02-11T05:13:25.187Z,12.80
2024-02-11T05:15:52.681Z,12.60
2024-02-11T05:18:20.803Z,12.93
2024-02-11T05:20:48.329Z,13.10
2024-02-11T05:23:16.577Z,13.83
2024-02-11T05:25:47.237Z,13.83
2024-02-11T05:28:15.406Z,13.67
2024-02-11T05:30:49.581Z,13.40
2024-02-11T05:33:19.088Z,13.13
2024-02-11T05:35:47.013Z,13.50
2024-02-11T05:38:14.483Z,13.50
2024-02-11T05:40:43.191Z,13.37
2024-02-11T05:43:10.911Z,13.77
2024-02-11T05:45:38.315Z,13.50
2024-02-11T05:48:05.677Z,13.47
2024-02-11T05:50:32.574Z,13.87
2024-02-11T05:52:59.552Z,13.47
2024-02-11T05:55:27.206Z,13.37
2024-02-11T05:57:54.894Z,13.53
2024-02-11T06:00:25.414Z,13.40
2024-02-11T06:02:54.945Z,13.53
2024-02-11T06:05:23.188Z,14.30
2024-02-11T06:07:57.371Z,13.63
2024-02-11T06:10:26.583Z,13.60
2024-02-11T06:12:54.788Z,12.90
2024-02-11T06:15:21.955Z,12.67
2024-02-11T06:17:54.071Z,14.70
2024-02-11T06:20:22.318Z,13.43
2024-02-11T06:22:54.436Z,13.10
2024-02-11T06:25:21.926Z,12.80
2024-02-11T06:27:49.450Z,13.20
2024-02-11T06:30:18.243Z,14.13
2024-02-11T06:32:47.597Z,12.43
2024-02-11T06:35:15.934Z,12.87
2024-02-11T06:37:44.432Z,13.80
2024-02-11T06:40:19.327Z,12.93
2024-02-11T06:42:51.766Z,12.93
2024-02-11T06:45:19.075Z,12.10
2024-02-11T06:47:46.885Z,12.73
2024-02-11T06:50:19.883Z,12.60
2024-02-11T06:52:49.973Z,12.70
2024-02-11T06:55:19.595Z,14.07
2024-02-11T06:57:46.769Z,12.50
2024-02-11T07:00:16.346Z,18.70
2024-02-11T07:02:43.675Z,11.97
2024-02-11T07:05:13.442Z,12.30
2024-02-11T07:07:43.435Z,13.33
2024-02-11T07:10:10.529Z,12.27
2024-02-11T07:12:37.312Z,11.77
2024-02-11T07:15:05.622Z,11.97
2024-02-11T07:17:33.855Z,12.37
2024-02-11T07:20:01.142Z,12.13
2024-02-11T07:22:27.956Z,13.00
2024-02-11T07:24:54.719Z,12.77
2024-02-11T07:27:21.437Z,12.87
2024-02-11T07:29:48.061Z,12.50
2024-02-11T07:32:15.279Z,12.53
2024-02-11T07:34:43.521Z,12.97
2024-02-11T07:37:10.417Z,13.77
2024-02-11T07:39:38.014Z,12.60
2024-02-11T07:42:05.207Z,13.30
2024-02-11T07:44:31.845Z,13.40
2024-02-11T07:47:00.217Z,13.17
2024-02-11T07:49:26.977Z,13.17
2024-02-11T07:51:56.036Z,12.40
2024-02-11T07:54:24.861Z,24.00
2024-02-11T07:56:52.544Z,13.57
2024-02-11T07:59:20.261Z,13.13
2024-02-11T08:01:47.296Z,12.77
2024-02-11T08:04:17.460Z,12.67
2024-02-11T08:06:44.637Z,13.20
2024-02-11T08:09:11.576Z,13.17
2024-02-11T08:11:38.456Z,13.67
2024-02-11T08:14:05.956Z,13.37
2024-02-11T08:16:33.027Z,13.77
2024-02-11T08:19:00.730Z,14.47
2024-02-11T08:21:27.768Z,14.27
2024-02-11T08:23:55.796Z,13.57
2024-02-11T08:26:23.952Z,13.53
2024-02-11T08:28:51.048Z,9.77
2024-02-11T08:31:19.151Z,14.90
2024-02-11T08:33:47.426Z,14.07
2024-02-11T08:36:15.268Z,14.23
2024-02-11T08:38:42.141Z,15.00
2024-02-11T08:41:09.236Z,14.17
2024-02-11T08:43:36.250Z,14.37
2024-02-11T08:46:05.643Z,13.93
2024-02-11T08:48:34.041Z,14.67
2024-02-11T08:51:01.874Z,15.97
2024-02-11T08:53:30.111Z,17.00
2024-02-11T08:55:59.150Z,15.67
2024-02-11T08:58:26.260Z,16.10
2024-02-11T09:00:52.973Z,16.13
2024-02-11T09:03:19.675Z,15.17
2024-02-11T09:05:47.426Z,15.37
2024-02-11T09:08:16.754Z,15.83
2024-02-11T09:10:44.830Z,16.10
2024-02-11T09:13:12.238Z,16.90
2024-02-11T09:15:39.251Z,16.43
2024-02-11T09:18:07.402Z,16.30
2024-02-11T09:20:36.986Z,16.87
2024-02-11T09:23:04.818Z,17.00
2024-02-11T09:25:31.777Z,17.43
2024-02-11T09:27:59.230Z,18.07
2024-02-11T09:30:26.440Z,17.73
2024-02-11T09:32:53.236Z,18.20
2024-02-11T09:35:22.671Z,7.60
2024-02-11T09:37:50.412Z,17.90
2024-02-11T09:40:18.934Z,18.23
2024-02-11T09:42:46.599Z,18.07
2024-02-11T09:45:17.737Z,18.20
2024-02-11T09:47:50.209Z,18.73
2024-02-11T09:50:19.274Z,18.53
2024-02-11T09:52:47.709Z,18.43
2024-02-11T09:55:17.006Z,19.57
2024-02-11T09:57:43.878Z,20.30
2024-02-11T10:00:11.146Z,19.53
2024-02-11T10:02:39.981Z,18.80
2024-02-11T10:05:10.371Z,20.00
2024-02-11T10:07:45.871Z,20.47
2024-02-11T10:10:15.178Z,19.07
2024-02-11T10:12:46.649Z,18.53
2024-02-11T10:15:16.977Z,21.00
2024-02-11T10:17:44.581Z,20.53
2024-02-11T10:20:13.700Z,20.07
2024-02-11T10:22:40.701Z,20.20
2024-02-11T10:25:10.430Z,19.67
2024-02-11T10:27:37.949Z,20.20
2024-02-11T10:30:14.896Z,15.03
2024-02-11T10:32:43.016Z,19.80
2024-02-11T10:35:12.417Z,20.93
2024-02-11T10:37:40.197Z,19.93
2024-02-11T10:40:09.599Z,20.80
2024-02-11T10:42:36.755Z,19.97
2024-02-11T10:45:04.905Z,20.30
2024-02-11T10:47:32.206Z,21.00
2024-02-11T10:49:59.060Z,21.63
2024-02-11T10:52:31.521Z,20.40
2024-02-11T10:55:03.222Z,20.27
2024-02-11T10:57:35.831Z,20.23
2024-02-11T11:00:03.216Z,21.57
2024-02-11T11:02:35.320Z,24.67
2024-02-11T11:05:06.332Z,20.30
2024-02-11T11:07:39.988Z,20.33
2024-02-11T11:10:14.020Z,20.27
2024-02-11T11:12:50.815Z,19.93
2024-02-11T11:15:32.570Z,21.43
2024-02-11T11:18:04.412Z,20.50
2024-02-11T11:20:35.038Z,20.77
2024-02-11T11:23:02.309Z,21.80
2024-02-11T11:25:32.601Z,20.60
2024-02-11T11:28:31.147Z,21.60
2024-02-11T11:30:58.321Z,20.63
2024-02-11T11:33:30.463Z,20.27
2024-02-11T11:35:59.686Z,19.93
2024-02-11T11:38:28.166Z,20.20
2024-02-11T11:40:55.908Z,21.03
2024-02-11T11:43:23.104Z,21.37
2024-02-11T11:46:05.756Z,20.23
2024-02-11T11:48:34.945Z,19.87
2024-02-11T11:51:03.749Z,19.53
2024-02-11T11:53:31.170Z,20.27
2024-02-11T11:56:00.884Z,20.13
2024-02-11T11:58:28.714Z,20.93
2024-02-11T12:01:06.139Z,20.57
2024-02-11T12:03:34.789Z,20.83
2024-02-11T12:06:01.903Z,20.40
2024-02-11T12:08:29.649Z,20.50
2024-02-11T12:11:01.340Z,20.70
2024-02-11T12:13:32.448Z,21.13
2024-02-11T12:16:02.371Z,20.73
2024-02-11T12:18:29.997Z,20.60
2024-02-11T12:20:58.890Z,20.13
2024-02-11T12:23:25.763Z,20.47
2024-02-11T12:25:54.186Z,20.53
2024-02-11T12:28:28.436Z,20.07
2024-02-11T12:31:13.816Z,20.33
2024-02-11T12:33:45.448Z,20.33
2024-02-11T12:36:29.294Z,20.80
2024-02-11T12:38:57.088Z,20.17
2024-02-11T12:41:26.025Z,19.93
2024-02-11T12:43:54.794Z,20.23
2024-02-11T12:46:22.102Z,20.53
2024-02-11T12:48:49.233Z,19.53
2024-02-11T12:51:19.244Z,20.30
2024-02-11T12:53:47.475Z,20.13
2024-02-11T12:56:15.957Z,20.13
2024-02-11T12:58:45.666Z,20.00
2024-02-11T13:01:13.113Z,19.13
2024-02-11T13:03:41.288Z,18.90
2024-02-11T13:06:09.276Z,20.30
2024-02-11T13:08:37.019Z,19.53
2024-02-11T13:11:06.868Z,20.10
2024-02-11T13:13:35.348Z,18.83
2024-02-11T13:16:02.110Z,20.70
2024-02-11T13:18:29.463Z,19.47
2024-02-11T13:20:58.455Z,20.10
2024-02-11T13:23:25.638Z,19.60
2024-02-11T13:25:57.008Z,20.80
2024-02-11T13:28:23.776Z,19.30
2024-02-11T13:30:54.437Z,19.30
2024-02-11T13:33:26.858Z,18.53
2024-02-11T13:35:54.344Z,19.53
2024-02-11T13:38:26.486Z,19.80
2024-02-11T13:40:53.690Z,18.50
2024-02-11T13:43:20.630Z,18.13
2024-02-11T13:45:47.390Z,18.57
2024-02-11T13:48:14.186Z,20.03
2024-02-11T13:50:42.752Z,18.90
2024-02-11T13:53:09.753Z,19.57
2024-02-11T13:55:36.605Z,18.33
2024-02-11T13:58:03.548Z,19.60
2024-02-11T14:00:30.718Z,19.70
2024-02-11T14:02:58.928Z,19.70
2024-02-11T14:05:25.739Z,19.77
2024-02-11T14:07:52.755Z,19.27
2024-02-11T14:10:21.862Z,20.47
2024-02-11T14:12:50.265Z,19.30
2024-02-11T14:15:17.209Z,19.43
2024-02-11T14:17:50.786Z,19.87
2024-02-11T14:20:18.439Z,19.43
2024-02-11T14:22:45.492Z,19.80
2024-02-11T14:25:16.705Z,19.83
2024-02-11T14:27:49.585Z,19.70
2024-02-11T14:30:18.180Z,19.47
2024-02-11T14:32:46.200Z,18.17
2024-02-11T14:35:14.177Z,18.13
2024-02-11T14:37:45.289Z,17.83
2024-02-11T14:40:20.174Z,18.47
2024-02-11T14:42:47.272Z,18.93
2024-02-11T14:45:15.373Z,17.30
2024-02-11T14:47:43.664Z,18.37
2024-02-11T14:50:11.033Z,16.93
2024-02-11T14:52:38.803Z,17.03
2024-02-11T14:55:07.025Z,17.33
2024-02-11T14:57:36.550Z,16.87
2024-02-11T15:00:06.100Z,17.20
2024-02-11T15:02:32.911Z,17.87
2024-02-11T15:05:00.232Z,18.73
2024-02-11T15:07:27.632Z,16.57
2024-02-11T15:09:56.874Z,18.07
2024-02-11T15:12:26.307Z,17.83
2024-02-11T15:14:53.490Z,18.27
2024-02-11T15:17:20.251Z,17.57
2024-02-11T15:19:47.610Z,18.17
2024-02-11T15:22:15.431Z,17.37
2024-02-11T15:24:43.465Z,18.17
2024-02-11T15:27:10.330Z,18.57
2024-02-11T15:29:37.174Z,18.47
2024-02-11T15:32:04.360Z,19.23
2024-02-11T15:34:31.189Z,18.67
2024-02-11T15:36:58.088Z,18.50
2024-02-11T15:39:25.082Z,17.97
2024-02-11T15:41:55.410Z,18.40
2024-02-11T15:44:22.703Z,17.43
2024-02-11T15:46:50.266Z,18.17
2024-02-11T15:49:17.157Z,18.47
2024-02-11T15:51:48.167Z,19.83
2024-02-11T15:54:16.040Z,19.10
2024-02-11T15:56:43.531Z,18.20
2024-02-11T15:59:10.868Z,17.93
2024-02-11T16:01:37.822Z,18.07
2024-02-11T16:04:05.796Z,19.17
2024-02-11T16:06:33.414Z,20.00
2024-02-11T16:09:00.255Z,19.30
2024-02-11T16:11:27.711Z,18.77
2024-02-11T16:13:54.691Z,19.57
2024-02-11T16:16:22.494Z,18.40
2024-02-11T16:18:50.305Z,18.57
2024-02-11T16:21:18.884Z,16.23
2024-02-11T16:23:48.435Z,18.20
2024-02-11T16:26:18.674Z,16.60
2024-02-11T16:28:46.141Z,16.17
2024-02-11T16:31:14.795Z,16.30
2024-02-11T16:33:42.060Z,16.90
2024-02-11T16:36:10.535Z,17.30
2024-02-11T16:38:37.623Z,16.43
2024-02-11T16:41:04.868Z,16.93
2024-02-11T16:43:31.691Z,16.90
2024-02-11T16:45:58.535Z,16.50
2024-02-11T16:48:25.448Z,17.97
2024-02-11T16:50:52.282Z,16.50
2024-02-11T16:53:19.031Z,21.77
2024-02-11T16:55:47.216Z,17.10
2024-02-11T16:58:14.903Z,17.10
2024-02-11T17:00:42.113Z,17.43
2024-02-11T17:03:09.371Z,16.43
2024-02-11T17:05:36.491Z,16.43
2024-02-11T17:08:04.184Z,17.10
2024-02-11T17:10:31.364Z,16.70
2024-02-11T17:12:59.225Z,16.43
2024-02-11T17:15:26.191Z,15.73
2024-02-11T17:17:53.112Z,17.70
2024-02-11T17:20:25.192Z,17.37
2024-02-11T17:22:54.827Z,18.80
2024-02-11T17:25:21.802Z,15.87
2024-02-11T17:27:51.086Z,16.13
2024-02-11T17:30:17.987Z,15.97
2024-02-11T17:32:49.074Z,17.07
2024-02-11T17:35:22.551Z,16.43
2024-02-11T17:37:49.380Z,15.87
2024-02-11T17:40:18.794Z,17.27
2024-02-11T17:42:47.705Z,16.53
2024-02-11T17:45:14.834Z,16.80
2024-02-11T17:47:43.160Z,18.40
2024-02-11T17:50:15.776Z,18.47
2024-02-11T17:52:44.225Z,18.30
2024-02-11T17:55:12.167Z,17.57
2024-02-11T17:57:42.323Z,17.73
2024-02-11T18:00:10.227Z,18.53
2024-02-11T18:02:41.014Z,18.40
2024-02-11T18:05:13.392Z,19.07
2024-02-11T18:07:44.307Z,20.90
2024-02-11T18:10:11.291Z,19.47
2024-02-11T18:12:38.314Z,25.67
2024-02-11T18:15:06.541Z,19.93
2024-02-11T18:17:33.452Z,18.30
2024-02-11T18:20:00.542Z,17.00
2024-02-11T18:22:27.496Z,18.03
2024-02-11T18:24:54.585Z,17.40
2024-02-11T18:27:21.259Z,18.20
2024-02-11T18:29:47.924Z,16.17
2024-02-11T18:32:14.866Z,17.47
2024-02-11T18:34:41.604Z,15.57
2024-02-11T18:37:08.326Z,15.87
2024-02-11T18:39:35.140Z,16.03
2024-02-11T18:42:02.360Z,16.30
2024-02-11T18:44:29.564Z,15.77
2024-02-11T18:46:56.555Z,15.70
2024-02-11T18:49:23.481Z,15.30
2024-02-11T18:51:50.218Z,14.90
2024-02-11T18:54:16.938Z,14.80
2024-02-11T18:56:43.701Z,15.70
2024-02-11T18:59:10.582Z,15.30
2024-02-11T19:01:38.126Z,14.97
2024-02-11T19:04:04.932Z,14.27
2024-02-11T19:06:33.964Z,14.03
2024-02-11T19:09:01.893Z,14.70
2024-02-11T19:11:28.744Z,13.73
2024-02-11T19:13:55.590Z,13.97
2024-02-11T19:16:22.359Z,14.47
2024-02-11T19:18:49.096Z,14.60
2024-02-11T19:21:16.702Z,13.93
2024-02-11T19:23:47.074Z,14.43
2024-02-11T19:26:16.682Z,13.67
2024-02-11T19:28:44.512Z,13.97
2024-02-11T19:31:13.141Z,13.93
2024-02-11T19:33:40.146Z,13.77
2024-02-11T19:36:08.079Z,14.20
2024-02-11T19:38:36.549Z,14.90
2024-02-11T19:41:05.810Z,14.47
2024-02-11T19:43:34.185Z,15.10
2024-02-11T19:46:04.312Z,14.27
2024-02-11T19:48:33.009Z,13.53
2024-02-11T19:51:00.290Z,14.50
2024-02-11T19:53:35.179Z,13.53
2024-02-11T19:56:09.275Z,12.70
2024-02-11T19:58:39.793Z,14.70
2024-02-11T20:01:07.384Z,13.30
2024-02-11T20:03:36.956Z,13.10
2024-02-11T20:06:06.894Z,12.53
2024-02-11T20:08:35.415Z,12.10
2024-02-11T20:11:05.797Z,12.50
2024-02-11T20:13:34.247Z,11.83
2024-02-11T20:16:04.191Z,13.20
2024-02-11T20:18:31.057Z,12.50
2024-02-11T20:20:58.274Z,13.27
2024-02-11T20:23:27.726Z,11.87
2024-02-11T20:25:55.743Z,11.70
2024-02-11T20:28:24.618Z,14.03
2024-02-11T20:30:52.491Z,13.90
2024-02-11T20:33:20.050Z,13.20
2024-02-11T20:35:46.954Z,13.77
2024-02-11T20:38:21.305Z,13.47
2024-02-11T20:40:50.129Z,12.33
2024-02-11T20:43:16.964Z,13.40
2024-02-11T20:45:45.490Z,13.87
2024-02-11T20:48:14.347Z,12.80
2024-02-11T20:50:41.346Z,13.60
2024-02-11T20:53:08.974Z,14.03
2024-02-11T20:55:37.181Z,13.90
2024-02-11T20:58:05.598Z,14.37
2024-02-11T21:00:36.177Z,12.93
2024-02-11T21:03:09.441Z,14.33
2024-02-11T21:05:37.266Z,12.27
2024-02-11T21:08:04.940Z,15.00
2024-02-11T21:10:34.462Z,12.83
2024-02-11T21:13:01.435Z,13.60
2024-02-11T21:15:28.666Z,13.67
2024-02-11T21:17:57.394Z,12.70
2024-02-11T21:20:29.610Z,12.70
2024-02-11T21:22:57.488Z,13.00
2024-02-11T21:25:24.435Z,11.50
2024-02-11T21:27:57.625Z,11.80
2024-02-11T21:30:26.420Z,13.13
2024-02-11T21:32:53.493Z,11.40
2024-02-11T21:35:20.618Z,11.83
2024-02-11T21:37:49.027Z,11.00
2024-02-11T21:40:16.678Z,12.07
2024-02-11T21:42:45.655Z,11.80
2024-02-11T21:45:13.102Z,11.97
2024-02-11T21:47:41.925Z,12.57
2024-02-11T21:50:13.149Z,11.17
2024-02-11T21:52:44.667Z,11.00
2024-02-11T21:55:12.074Z,10.40
2024-02-11T21:57:42.398Z,10.10
2024-02-11T22:00:13.553Z,10.27
2024-02-11T22:02:45.272Z,10.43
2024-02-11T22:05:14.562Z,10.70
2024-02-11T22:07:42.091Z,11.07
2024-02-11T22:10:10.822Z,10.97
2024-02-11T22:12:49.628Z,10.57
2024-02-11T22:15:17.132Z,10.07
2024-02-11T22:17:46.963Z,10.23
2024-02-11T22:20:14.001Z,10.47
2024-02-11T22:22:40.858Z,11.03
2024-02-11T22:25:09.050Z,10.23
2024-02-11T22:27:36.085Z,9.73
2024-02-11T22:30:03.266Z,9.73
2024-02-11T22:32:30.577Z,9.80
2024-02-11T22:34:57.603Z,9.93
2024-02-11T22:37:24.719Z,9.27
2024-02-11T22:39:51.703Z,9.47
2024-02-11T22:42:22.462Z,10.43
2024-02-11T22:44:50.262Z,9.73
2024-02-11T22:47:17.913Z,10.47
2024-02-11T22:49:51.302Z,9.10
2024-02-11T22:52:21.060Z,9.47
2024-02-11T22:54:47.793Z,10.07
2024-02-11T22:57:14.525Z,9.20
2024-02-11T22:59:42.825Z,9.43
2024-02-11T23:02:10.846Z,9.37
2024-02-11T23:04:37.636Z,8.90
2024-02-11T23:07:05.151Z,8.70
2024-02-11T23:09:34.844Z,9.13
2024-02-11T23:12:02.252Z,9.57
2024-02-11T23:14:30.758Z,9.23
2024-02-11T23:16:58.155Z,9.80
2024-02-11T23:19:29.440Z,9.23
2024-02-11T23:21:58.409Z,9.10
2024-02-11T23:24:26.802Z,9.40
2024-02-11T23:27:06.726Z,9.07
2024-02-11T23:29:36.924Z,9.07
2024-02-11T23:32:05.406Z,9.33
2024-02-11T23:34:33.239Z,9.13
2024-02-11T23:37:02.977Z,9.23
2024-02-11T23:39:30.107Z,8.37
2024-02-11T23:41:57.307Z,9.43
2024-02-11T23:44:24.206Z,9.23
2024-02-11T23:46:51.280Z,9.50
2024-02-11T23:49:20.596Z,8.73
2024-02-11T23:51:48.409Z,8.53
2024-02-11T23:54:16.707Z,7.77
2024-02-11T23:56:43.798Z,8.30
2024-02-11T23:59:12.051Z,8.33
